Time;durP1;ratioP1;P1;durP2;ratioP2;P2;SDS_P1;SDS_P2;PMS_P1;PMS_P2;Temp;Humidity;BMP_temperature;BMP_pressure;BME280_temperature;BME280_humidity;BME280_pressure;Samples;Min_cycle;Max_cycle;Signal;HPM_P1;HPM_P2
2021/08/05 00:00:24;;;;;;;;;;;;;;;;;;3590930;40;19963;-74
2021/08/05 00:02:50;;;;;;;;;;;;;;;;;;3599449;40;19963;-73
2021/08/05 00:05:16;;;;;;;;;;;;;;;;;;3589352;40;20209;-75
2021/08/05 00:07:42;;;;;;;;;;;;;;;;;;3595608;39;19944;-74
2021/08/05 00:10:07;;;;;;;;;;;;;;;;;;3599843;39;19940;-75
2021/08/05 00:12:33;;;;;;;;;;;;;;;;;;3610950;39;19928;-75
2021/08/05 00:14:59;;;;;;;;;;;;;;;;;;3617798;39;19931;-76
2021/08/05 00:17:25;;;;;;;;;;;;;;;;;;3610152;39;19928;-75
2021/08/05 00:19:51;;;;;;;;;;;;;;;;;;3605691;39;20024;-75
2021/08/05 00:22:17;;;;;;;;;;;;;;;;;;3612964;39;20274;-75
2021/08/05 00:24:43;;;;;;;;;;;;;;;;;;3608370;39;19936;-77
2021/08/05 00:27:09;;;;;;;;;;;;;;;;;;3604421;39;19935;-75
2021/08/05 00:29:35;;;;;;;;;;;;;;;;;;3607249;39;20200;-75
2021/08/05 00:32:01;;;;;;;;;;;;;;;;;;3606842;39;19928;-75
2021/08/05 00:34:27;;;;;;;;;;;;;;;;;;3616555;39;19940;-74
2021/08/05 00:36:52;;;;;;;;;;;;;;;;;;3616349;39;19950;-75
2021/08/05 00:39:18;;;;;;;;;;;;;;;;;;3602296;39;20273;-75
2021/08/05 00:41:44;;;;;;;;;;;;;;;;;;3611205;39;20373;-74
2021/08/05 00:44:10;;;;;;;;;;;;;;;;;;3611347;39;20012;-75
2021/08/05 00:46:36;;;;;;;;;;;;;;;;;;3611236;39;20003;-75
2021/08/05 00:49:02;;;;;;;;;;;;;;;;;;3612826;39;20269;-75
2021/08/05 00:51:28;;;;;;;;;;;;;;;;;;3603803;39;19985;-74
2021/08/05 00:53:54;;;;;;;;;;;;;;;;;;3606682;39;19935;-76
2021/08/05 00:56:20;;;;;;;;;;;;;;;;;;3607338;39;20028;-75
2021/08/05 00:58:46;;;;;;;;;;;;;;;;;;3611440;39;19981;-74
2021/08/05 01:01:12;;;;;;;;;;;;;;;;;;3610094;39;20375;-75
2021/08/05 01:03:38;;;;;;;;;;;;;;;;;;3620999;39;19927;-75
2021/08/05 01:06:04;;;;;;;;;;;;;;;;;;3612940;39;20366;-75
2021/08/05 01:08:30;;;;;;;;;;;;;;;;;;3611557;39;19981;-75
2021/08/05 01:10:56;;;;;;;;;;;;;;;;;;3618670;39;20015;-74
2021/08/05 01:13:21;;;;;;;;;;;;;;;;;;3614961;39;20024;-75
2021/08/05 01:15:47;;;;;;;;;;;;;;;;;;3610193;39;19960;-75
2021/08/05 01:18:13;;;;;;;;;;;;;;;;;;3607339;39;19951;-75
2021/08/05 01:20:39;;;;;;;;;;;;;;;;;;3608444;39;19935;-74
2021/08/05 01:23:05;;;;;;;;;;;;;;;;;;3602963;39;19939;-75
2021/08/05 01:25:31;;;;;;;;;;;;;;;;;;3611147;39;19985;-74
2021/08/05 01:27:57;;;;;;;;;;;;;;;;;;3622929;39;20287;-74
2021/08/05 01:30:23;;;;;;;;;;;;;;;;;;3627880;39;19949;-74
2021/08/05 01:32:49;;;;;;;;;;;;;;;;;;3624552;39;19940;-74
2021/08/05 01:35:15;;;;;;;;;;;;;;;;;;3616185;39;19928;-74
2021/08/05 01:37:43;;;;;;;;;;;17.20;99.90;;;;;;3621260;39;19927;-74
2021/08/05 01:40:10;;;;;;;;;;;16.30;99.90;;;;;;3607410;39;19935;-75
2021/08/05 01:42:36;;;;;;;;;;;16.20;99.90;;;;;;3622375;39;19932;-74
2021/08/05 01:45:02;;;;;;;;;;;16.20;99.90;;;;;;3617430;39;19939;-74
2021/08/05 01:47:29;;;;;;;;;;;16.20;99.90;;;;;;3611430;39;19933;-74
2021/08/05 01:49:55;;;;;;;;;;;;;;;;;;3611345;39;19971;-77
2021/08/05 01:52:21;;;;;;;;;;;16.10;99.90;;;;;;3621126;39;19927;-75
2021/08/05 01:54:47;;;;;;;;;;;;;;;;;;3621317;39;19938;-75
2021/08/05 01:57:13;;;;;;;;;;;;;;;;;;3621009;39;19931;-75
2021/08/05 01:59:39;;;;;;;;;;;;;;;;;;3621177;39;19936;-75
2021/08/05 02:02:05;;;;;;;;;;;;;;;;;;3611326;39;19939;-75
2021/08/05 02:04:31;;;;;;;;;;;;;;;;;;3611460;39;19938;-75
2021/08/05 02:06:57;;;;;;;;;;;;;;;;;;3619176;39;19971;-76
2021/08/05 02:09:22;;;;;;;;;;;;;;;;;;3620953;39;20015;-75
2021/08/05 02:11:48;;;;;;;;;;;;;;;;;;3611504;39;20027;-74
2021/08/05 02:14:16;;;;;;;;;;;16.00;99.90;;;;;;3620684;39;19984;-74
2021/08/05 02:16:44;;;;;;;;;;;15.80;99.90;;;;;;3610848;39;20025;-74
2021/08/05 02:19:10;;;;;;;;;;;15.70;99.90;;;;;;3620836;39;19989;-75
2021/08/05 02:21:36;;;;;;;;;;;;;;;;;;3620640;39;19932;-74
2021/08/05 02:24:02;;;;;;;;;;;;;;;;;;3627421;39;19948;-74
2021/08/05 02:26:28;;;;;;;;;;;15.70;99.90;;;;;;3620119;39;19935;-74
2021/08/05 02:28:54;;;;;;;;;;;15.60;99.90;;;;;;3620234;39;19938;-75
2021/08/05 02:31:20;;;;;;;;;;;;;;;;;;3617808;39;19943;-74
2021/08/05 02:33:49;;;;;;;;;;;15.50;99.90;;;;;;3610653;39;20273;-74
2021/08/05 02:36:15;;;;;;;;;;;15.40;99.90;;;;;;3623059;39;19935;-75
2021/08/05 02:38:40;;;;;;;;;;;15.40;99.90;;;;;;3624667;39;19996;-74
2021/08/05 02:41:06;;;;;;;;;;;15.40;99.90;;;;;;3617760;39;19932;-75
2021/08/05 02:43:32;;;;;;;;;;;15.30;99.90;;;;;;3614877;39;19932;-78
2021/08/05 02:45:58;;;;;;;;;;;;;;;;;;3609953;39;19939;-75
2021/08/05 02:48:25;;;;;;;;;;;15.30;99.90;;;;;;3620339;39;19931;-75
2021/08/05 02:50:53;;;;;;;;;;;15.20;99.90;;;;;;3621127;39;19931;-74
2021/08/05 02:53:18;;;;;;;;;;;15.10;99.90;;;;;;3611373;39;19936;-75
2021/08/05 02:55:44;;;;;;;;;;;15.10;99.90;;;;;;3610261;39;19931;-75
2021/08/05 02:58:10;;;;;;;;;;;;;;;;;;3613620;39;20292;-74
2021/08/05 03:00:36;;;;;;;;;;;;;;;;;;3620092;39;19932;-74
2021/08/05 03:03:02;;;;;;;;;;;15.00;99.90;;;;;;3619815;39;19934;-74
2021/08/05 03:05:27;;;;;;;;;;;14.90;99.90;;;;;;3622582;39;19932;-74
2021/08/05 03:07:54;;;;;;;;;;;14.80;99.90;;;;;;3617492;39;19938;-73
2021/08/05 03:10:20;;;;;;;;;;;14.80;99.90;;;;;;3620204;39;19935;-74
2021/08/05 03:12:46;;;;;;;;;;;14.80;99.90;;;;;;3614088;39;19971;-74
2021/08/05 03:15:12;;;;;;;;;;;14.90;99.90;;;;;;3612123;39;19939;-74
2021/08/05 03:17:37;;;;;;;;;;;14.80;99.90;;;;;;3604663;39;19940;-73
2021/08/05 03:20:04;;;;;;;;;;;14.80;99.90;;;;;;3627657;39;19939;-74
2021/08/05 03:22:30;;;;;;;;;;;14.80;99.90;;;;;;3619725;39;20284;-73
2021/08/05 03:24:57;;;;;;;;;;;14.70;99.90;;;;;;3611247;39;19938;-74
2021/08/05 03:27:22;;;;;;;;;;;14.60;99.90;;;;;;3609644;39;20221;-76
2021/08/05 03:29:48;;;;;;;;;;;14.70;99.90;;;;;;3621493;39;19931;-74
2021/08/05 03:32:14;;;;;;;;;;;14.70;99.90;;;;;;3621518;39;19938;-74
2021/08/05 03:34:39;;;;;;;;;;;14.70;99.90;;;;;;3611600;39;20039;-74
2021/08/05 03:37:05;;;;;;;;;;;14.70;99.90;;;;;;3621322;39;19990;-75
2021/08/05 03:39:31;;;;;;;;;;;14.70;99.90;;;;;;3610016;39;19935;-74
2021/08/05 03:41:58;;;;;;;;;;;14.70;99.90;;;;;;3620341;39;20280;-75
2021/08/05 03:44:24;;;;;;;;;;;14.50;99.90;;;;;;3604952;39;20016;-74
2021/08/05 03:46:50;;;;;;;;;;;14.40;99.90;;;;;;3607107;39;20307;-76
2021/08/05 03:49:15;;;;;;;;;;;14.30;99.90;;;;;;3608830;39;20241;-73
2021/08/05 03:51:41;;;;;;;;;;;14.40;99.90;;;;;;3605113;39;19939;-75
2021/08/05 03:54:07;;;;;;;;;;;14.40;99.90;;;;;;3621433;39;19947;-74
2021/08/05 03:56:34;;;;;;;;;;;14.50;99.90;;;;;;3621402;39;19931;-74
2021/08/05 03:59:01;;;;;;;;;;;14.50;99.90;;;;;;3606496;39;19932;-75
2021/08/05 04:01:27;;;;;;;;;;;14.50;99.90;;;;;;3619927;39;20344;-75
2021/08/05 04:03:53;;;;;;;;;;;14.50;99.90;;;;;;3607087;39;19950;-75
2021/08/05 04:06:19;;;;;;;;;;;14.50;99.90;;;;;;3602785;39;19931;-74
2021/08/05 04:08:44;;;;;;;;;;;14.60;99.90;;;;;;3621941;39;19932;-74
2021/08/05 04:11:10;;;;;;;;;;;14.50;99.90;;;;;;3621138;39;20292;-75
2021/08/05 04:13:36;;;;;;;;;;;14.60;99.90;;;;;;3621157;39;20026;-74
2021/08/05 04:16:03;;;;;;;;;;;14.50;99.90;;;;;;3611757;39;20004;-79
2021/08/05 04:18:29;;;;;;;;;;;14.60;99.90;;;;;;3611342;39;19942;-77
2021/08/05 04:20:54;;;;;;;;;;;14.50;99.90;;;;;;3621197;39;19931;-74
2021/08/05 04:23:20;;;;;;;;;;;14.40;99.90;;;;;;3621165;39;19943;-75
2021/08/05 04:25:46;;;;;;;;;;;14.30;99.90;;;;;;3611530;39;19939;-74
2021/08/05 04:28:12;;;;;;;;;;;14.30;99.90;;;;;;3620534;39;19983;-75
2021/08/05 04:30:37;;;;;;;;;;;14.20;99.90;;;;;;3604174;39;19932;-75
2021/08/05 04:33:05;;;;;;;;;;;14.20;99.90;;;;;;3611167;39;19932;-75
2021/08/05 04:35:30;;;;;;;;;;;14.20;99.90;;;;;;3628056;39;19955;-76
2021/08/05 04:37:57;;;;;;;;;;;14.20;99.90;;;;;;3621068;39;19998;-74
2021/08/05 04:40:23;;;;;;;;;;;14.20;99.90;;;;;;3611374;39;20035;-74
2021/08/05 04:42:49;;;;;;;;;;;14.30;99.90;;;;;;3621442;39;20385;-74
2021/08/05 04:45:15;;;;;;;;;;;14.30;99.90;;;;;;3621382;39;19940;-74
2021/08/05 04:47:51;;;;;;;;;;;14.30;99.90;;;;;;3627785;39;20242;-74
2021/08/05 04:50:19;;;;;;;;;;;14.30;99.90;;;;;;3621051;39;20012;-74
2021/08/05 04:52:44;;;;;;;;;;;14.40;99.90;;;;;;3604708;39;20012;-75
2021/08/05 04:55:10;;;;;;;;;;;14.40;99.90;;;;;;3621642;39;19971;-74
2021/08/05 04:57:44;;;;;;;;;;;14.50;99.90;;;;;;3612238;39;19940;-75
2021/08/05 05:00:11;;;;;;;;;;;14.60;99.90;;;;;;3614305;39;19984;-75
2021/08/05 05:02:36;;;;;;;;;;;14.80;99.90;;;;;;3619307;39;20172;-75
2021/08/05 05:05:02;;;;;;;;;;;14.90;99.90;;;;;;3611112;39;19939;-75
2021/08/05 05:07:29;;;;;;;;;;;14.90;99.90;;;;;;3621253;39;19938;-74
2021/08/05 05:09:55;;;;;;;;;;;15.00;99.90;;;;;;3622309;39;19961;-77
2021/08/05 05:12:21;;;;;;;;;;;15.00;99.90;;;;;;3618523;39;19935;-77
2021/08/05 05:14:46;;;;;;;;;;;15.10;99.90;;;;;;3620920;39;19939;-74
2021/08/05 05:17:12;;;;;;;;;;;15.20;99.90;;;;;;3612939;39;20173;-74
2021/08/05 05:19:38;;;;;;;;;;;15.30;99.90;;;;;;3607054;39;19932;-79
2021/08/05 05:22:03;;;;;;;;;;;15.40;99.90;;;;;;3610803;39;19932;-74
2021/08/05 05:24:30;;;;;;;;;;;15.50;99.90;;;;;;3620962;39;19932;-74
2021/08/05 05:26:56;;;;;;;;;;;15.50;99.90;;;;;;3615596;39;19931;-75
2021/08/05 05:29:22;;;;;;;;;;;15.60;99.90;;;;;;3609921;39;20200;-74
2021/08/05 05:31:47;;;;;;;;;;;15.70;99.90;;;;;;3609240;39;19960;-74
2021/08/05 05:34:13;;;;;;;;;;;15.60;99.90;;;;;;3609375;39;19935;-74
2021/08/05 05:36:39;;;;;;;;;;;15.70;99.90;;;;;;3606315;39;19932;-77
2021/08/05 05:39:04;;;;;;;;;;;15.80;99.90;;;;;;3607701;39;19932;-74
2021/08/05 05:41:31;;;;;;;;;;;15.80;99.90;;;;;;3603246;39;19940;-76
2021/08/05 05:43:57;;;;;;;;;;;15.90;99.90;;;;;;3610855;39;19980;-74
2021/08/05 05:46:23;;;;;;;;;;;;;;;;;;3609896;39;19939;-74
2021/08/05 05:48:49;;;;;;;;;;;16.00;99.90;;;;;;3610427;39;19927;-74
2021/08/05 05:51:16;;;;;;;;;;;;;;;;;;3609304;39;19979;-75
2021/08/05 05:53:42;;;;;;;;;;;;;;;;;;3603567;39;20271;-74
2021/08/05 05:56:10;;;;;;;;;;;;;;;;;;3610047;39;19928;-74
2021/08/05 05:58:35;;;;;;;;;;;;;;;;;;3614718;39;20291;-77
2021/08/05 06:01:01;;;;;;;;;;;;;;;;;;3614703;39;19928;-76
2021/08/05 06:03:27;;;;;;;;;;;;;;;;;;3611260;39;19924;-77
2021/08/05 06:05:54;;;;;;;;;;;16.10;99.90;;;;;;3611267;39;20185;-75
2021/08/05 06:08:20;;;;;;;;;;;;;;;;;;3617672;39;20042;-74
2021/08/05 06:10:46;;;;;;;;;;;;;;;;;;3610784;39;20041;-75
2021/08/05 06:13:12;;;;;;;;;;;16.40;99.90;;;;;;3617327;39;19935;-77
2021/08/05 06:15:37;;;;;;;;;;;16.60;99.90;;;;;;3623118;39;19942;-77
2021/08/05 06:18:03;;;;;;;;;;;16.60;99.90;;;;;;3611704;39;19940;-78
2021/08/05 06:20:29;;;;;;;;;;;16.60;99.90;;;;;;3601488;40;19928;-77
2021/08/05 06:22:56;;;;;;;;;;;16.70;99.90;;;;;;3601782;40;20281;-76
2021/08/05 06:25:22;;;;;;;;;;;16.70;99.90;;;;;;3608203;39;19939;-77
2021/08/05 06:27:48;;;;;;;;;;;16.80;99.90;;;;;;3611142;39;20294;-77
2021/08/05 06:30:14;;;;;;;;;;;16.90;99.90;;;;;;3611180;39;19932;-77
2021/08/05 06:32:40;;;;;;;;;;;16.90;99.90;;;;;;3619552;39;19967;-77
2021/08/05 06:35:06;;;;;;;;;;;;;;;;;;3611009;39;20319;-76
2021/08/05 06:37:32;;;;;;;;;;;16.90;99.90;;;;;;3611196;39;19927;-77
2021/08/05 06:39:58;;;;;;;;;;;;;;;;;;3612098;39;20170;-76
2021/08/05 06:42:24;;;;;;;;;;;;;;;;;;3612618;39;20269;-76
2021/08/05 06:44:50;;;;;;;;;;;;;;;;;;3601494;40;19931;-78
2021/08/05 06:47:17;;;;;;;;;;;17.00;99.90;;;;;;3601826;39;19924;-77
2021/08/05 06:49:43;;;;;;;;;;;;;;;;;;3602268;40;20185;-76
2021/08/05 06:52:09;;;;;;;;;;;;;;;;;;3608663;39;19939;-76
2021/08/05 06:54:35;;;;;;;;;;;;;;;;;;3613166;39;19953;-76
2021/08/05 06:57:01;;;;;;;;;;;;;;;;;;3613122;39;20200;-76
2021/08/05 06:59:27;;;;;;;;;;;;;;;;;;3613605;39;19927;-77
2021/08/05 07:01:53;;;;;;;;;;;;;;;;;;3623635;39;20268;-77
2021/08/05 07:04:19;;;;;;;;;;;;;;;;;;3623895;39;19932;-76
2021/08/05 07:06:45;;;;;;;;;;;;;;;;;;3622470;39;20217;-76
2021/08/05 07:09:10;;;;;;;;;;;;;;;;;;3617728;39;20178;-77
2021/08/05 07:11:36;;;;;;;;;;;;;;;;;;3613358;39;20008;-76
2021/08/05 07:14:02;;;;;;;;;;;;;;;;;;3612576;39;19946;-77
2021/08/05 07:16:28;;;;;;;;;;;;;;;;;;3612395;39;19924;-77
2021/08/05 07:18:54;;;;;;;;;;;;;;;;;;3613278;39;20265;-76
2021/08/05 07:21:20;;;;;;;;;;;;;;;;;;3613633;39;19936;-76
2021/08/05 07:23:46;;;;;;;;;;;;;;;;;;3612407;39;19994;-76
2021/08/05 07:26:12;;;;;;;;;;;;;;;;;;3624899;39;19939;-77
2021/08/05 07:28:39;;;;;;;;;;;;;;;;;;3634034;39;19923;-78
2021/08/05 07:31:05;;;;;;;;;;;;;;;;;;3631061;39;19940;-76
2021/08/05 07:33:30;;;;;;;;;;;;;;;;;;3623492;39;20038;-77
2021/08/05 07:35:57;;;;;;;;;;;;;;;;;;3622541;39;19943;-77
2021/08/05 07:38:23;;;;;;;;;;;;;;;;;;3624354;39;19927;-79
2021/08/05 07:40:49;;;;;;;;;;;;;;;;;;3624457;39;19975;-77
2021/08/05 07:43:15;;;;;;;;;;;;;;;;;;3634248;39;19943;-77
2021/08/05 07:45:41;;;;;;;;;;;;;;;;;;3621214;39;19942;-76
2021/08/05 07:48:06;;;;;;;;;;;;;;;;;;3604654;39;19928;-78
2021/08/05 07:50:32;;;;;;;;;;;;;;;;;;3604557;39;19932;-77
2021/08/05 07:52:58;;;;;;;;;;;;;;;;;;3614501;39;20015;-77
2021/08/05 07:55:25;;;;;;;;;;;;;;;;;;3618401;39;19942;-77
2021/08/05 07:57:51;;;;;;;;;;;;;;;;;;3615360;39;20269;-79
2021/08/05 08:00:17;;;;;;;;;;;;;;;;;;3635283;39;20261;-77
2021/08/05 08:02:43;;;;;;;;;;;;;;;;;;3625426;39;19956;-76
2021/08/05 08:05:11;;;;;;;;;;;;;;;;;;3625747;39;20213;-77
2021/08/05 08:07:37;;;;;;;;;;;;;;;;;;3625273;39;19927;-77
2021/08/05 08:10:03;;;;;;;;;;;;;;;;;;3625223;39;20272;-77
2021/08/05 08:12:29;;;;;;;;;;;;;;;;;;3635558;39;19934;-77
2021/08/05 08:14:54;;;;;;;;;;;;;;;;;;3625380;39;19933;-78
2021/08/05 08:17:20;;;;;;;;;;;;;;;;;;3625730;39;19950;-77
2021/08/05 08:19:46;;;;;;;;;;;;;;;;;;3635310;39;20276;-77
2021/08/05 08:22:12;;;;;;;;;;;;;;;;;;3626327;39;20367;-78
2021/08/05 08:24:38;;;;;;;;;;;;;;;;;;3626231;39;20261;-79
2021/08/05 08:27:05;;;;;;;;;;;17.30;99.90;;;;;;3630591;39;19997;-78
2021/08/05 08:29:31;;;;;;;;;;;22.50;99.90;;;;;;3625354;39;19939;-77
2021/08/05 08:31:57;;;;;;;;;;;22.50;99.90;;;;;;3635364;39;19958;-78
2021/08/05 08:34:22;;;;;;;;;;;22.30;99.90;;;;;;3621579;39;20020;-77
2021/08/05 08:36:48;;;;;;;;;;;22.10;99.90;;;;;;3613907;39;19936;-76
2021/08/05 08:39:14;;;;;;;;;;;22.00;99.90;;;;;;3613839;39;19928;-77
2021/08/05 08:41:40;;;;;;;;;;;22.20;99.90;;;;;;3613457;39;19935;-77
2021/08/05 08:44:08;;;;;;;;;;;22.20;99.90;;;;;;3613439;39;19928;-77
2021/08/05 08:46:34;;;;;;;;;;;;;;;;;;3604041;39;19951;-77
2021/08/05 08:49:00;;;;;;;;;;;;;;;;;;3603720;39;19936;-77
2021/08/05 08:51:26;;;;;;;;;;;;;;;;;;3613638;39;19935;-77
2021/08/05 08:53:52;;;;;;;;;;;;;;;;;;3604389;39;19923;-78
2021/08/05 08:56:18;;;;;;;;;;;;;;;;;;3630621;39;19931;-78
2021/08/05 08:58:44;;;;;;;;;;;;;;;;;;3624241;39;20329;-76
2021/08/05 09:01:10;;;;;;;;;;;;;;;;;;3633617;39;19934;-77
2021/08/05 09:03:36;;;;;;;;;;;;;;;;;;3634155;39;19933;-77
2021/08/05 09:06:02;;;;;;;;;;;;;;;;;;3624205;39;19931;-76
2021/08/05 09:08:28;;;;;;;;;;;;;;;;;;3633607;39;19935;-75
2021/08/05 09:10:54;;;;;;;;;;;;;;;;;;3613459;39;19956;-77
2021/08/05 09:13:20;;;;;;;;;;;;;;;;;;3603907;39;20005;-79
2021/08/05 09:15:46;;;;;;;;;;;;;;;;;;3613483;39;20012;-77
2021/08/05 09:18:12;;;;;;;;;;;;;;;;;;3613487;39;19924;-77
2021/08/05 09:20:40;;;;;;;;;;;22.40;99.90;;;;;;3612121;39;19952;-77
2021/08/05 09:23:06;;;;;;;;;;;24.50;99.90;;;;;;3612074;39;19951;-77
2021/08/05 09:25:32;;;;;;;;;;;24.50;99.90;;;;;;3613648;39;19958;-77
2021/08/05 09:27:58;;;;;;;;;;;;;;;;;;3613336;39;19955;-76
2021/08/05 09:30:24;;;;;;;;;;;;;;;;;;3613311;39;19924;-77
2021/08/05 09:32:50;;;;;;;;;;;;;;;;;;3613939;39;19931;-76
2021/08/05 09:35:16;;;;;;;;;;;;;;;;;;3613756;39;19923;-78
2021/08/05 09:37:42;;;;;;;;;;;;;;;;;;3623702;39;19938;-77
2021/08/05 09:40:08;;;;;;;;;;;;;;;;;;3623630;39;19923;-76
2021/08/05 09:42:34;;;;;;;;;;;;;;;;;;3614073;39;19930;-77
2021/08/05 09:45:00;;;;;;;;;;;;;;;;;;3614064;39;20299;-77
2021/08/05 09:47:26;;;;;;;;;;;;;;;;;;3614254;39;20261;-76
2021/08/05 09:49:52;;;;;;;;;;;;;;;;;;3623478;39;19923;-77
2021/08/05 09:52:18;;;;;;;;;;;;;;;;;;3613832;39;19924;-76
2021/08/05 09:54:47;;;;;;;;;;;;;;;;;;3623680;39;19928;-77
2021/08/05 09:57:14;;;;;;;;;;;;;;;;;;3623893;39;19923;-77
2021/08/05 09:59:39;;;;;;;;;;;;;;;;;;3613537;39;19923;-77
2021/08/05 10:02:05;;;;;;;;;;;;;;;;;;3623573;39;20196;-77
2021/08/05 10:04:31;;;;;;;;;;;;;;;;;;3623839;39;19929;-77
2021/08/05 10:06:59;;;;;;;;;;;;;;;;;;3613607;39;20012;-76
2021/08/05 10:09:25;;;;;;;;;;;;;;;;;;3614032;39;20008;-78
2021/08/05 10:11:51;;;;;;;;;;;;;;;;;;3614133;39;19924;-78
2021/08/05 10:14:16;;;;;;;;;;;;;;;;;;3623232;39;19934;-77
2021/08/05 10:16:42;;;;;;;;;;;;;;;;;;3614214;39;19924;-77
2021/08/05 10:19:08;;;;;;;;;;;;;;;;;;3623390;39;20272;-77
2021/08/05 10:21:37;;;;;;;;;;;;;;;;;;3623415;39;19924;-77
2021/08/05 10:24:03;;;;;;;;;;;;;;;;;;3623793;39;20260;-77
2021/08/05 10:26:29;;;;;;;;;;;;;;;;;;3613789;39;19968;-77
2021/08/05 10:28:55;;;;;;;;;;;;;;;;;;3613655;39;19938;-77
2021/08/05 10:31:21;;;;;;;;;;;;;;;;;;3623165;39;19923;-77
2021/08/05 10:33:47;;;;;;;;;;;;;;;;;;3623602;39;19943;-78
2021/08/05 10:36:13;;;;;;;;;;;;;;;;;;3614364;39;19932;-78
2021/08/05 10:38:38;;;;;;;;;;;;;;;;;;3628901;39;19935;-77
2021/08/05 10:41:05;;;;;;;;;;;;;;;;;;3633825;39;20014;-78
2021/08/05 10:43:31;;;;;;;;;;;;;;;;;;3623913;39;19947;-81
2021/08/05 10:45:57;;;;;;;;;;;;;;;;;;3624220;39;20035;-76
2021/08/05 10:48:23;;;;;;;;;;;;;;;;;;3633860;39;20045;-76
2021/08/05 10:50:50;;;;;;;;;;;;;;;;;;3626183;39;19934;-77
2021/08/05 10:53:16;;;;;;;;;;;;;;;;;;3622925;39;20019;-77
2021/08/05 10:55:42;;;;;;;;;;;;;;;;;;3613449;39;19931;-76
2021/08/05 10:58:08;;;;;;;;;;;;;;;;;;3613026;39;19957;-77
2021/08/05 11:00:34;;;;;;;;;;;;;;;;;;3622816;39;19923;-76
2021/08/05 11:03:00;;;;;;;;;;;;;;;;;;3622566;39;19927;-77
2021/08/05 11:05:26;;;;;;;;;;;;;;;;;;3612914;39;19941;-77
2021/08/05 11:07:51;;;;;;;;;;;;;;;;;;3619889;39;19927;-77
2021/08/05 11:10:19;;;;;;;;;;;;;;;;;;3633505;39;19934;-77
2021/08/05 11:12:45;;;;;;;;;;;;;;;;;;3624095;39;19931;-77
2021/08/05 11:15:11;;;;;;;;;;;;;;;;;;3634223;39;19978;-77
2021/08/05 11:17:38;;;;;;;;;;;;;;;;;;3623466;39;19931;-77
2021/08/05 11:20:04;;;;;;;;;;;;;;;;;;3613325;39;20291;-78
2021/08/05 11:22:30;;;;;;;;;;;;;;;;;;3623161;39;19932;-77
2021/08/05 11:24:56;;;;;;;;;;;;;;;;;;3623755;39;19923;-77
2021/08/05 11:27:22;;;;;;;;;;;;;;;;;;3613604;39;20012;-77
2021/08/05 11:29:50;;;;;;;;;;;;;;;;;;3623860;39;19924;-78
2021/08/05 11:32:16;;;;;;;;;;;;;;;;;;3623561;39;19931;-78
2021/08/05 11:34:42;;;;;;;;;;;;;;;;;;3620069;39;20273;-77
2021/08/05 11:37:08;;;;;;;;;;;;;;;;;;3614801;39;20002;-76
2021/08/05 11:39:34;;;;;;;;;;;;;;;;;;3623334;39;19928;-76
2021/08/05 11:42:02;;;;;;;;;;;;;;;;;;3629319;39;19927;-76
2021/08/05 11:44:28;;;;;;;;;;;;;;;;;;3625300;39;19923;-78
2021/08/05 11:46:54;;;;;;;;;;;;;;;;;;3630351;39;19936;-78
2021/08/05 11:49:20;;;;;;;;;;;;;;;;;;3615270;39;20013;-76
2021/08/05 11:51:46;;;;;;;;;;;;;;;;;;3634326;39;20008;-76
2021/08/05 11:54:12;;;;;;;;;;;;;;;;;;3621657;39;19935;-77
2021/08/05 11:56:38;;;;;;;;;;;;;;;;;;3618099;39;20169;-76
2021/08/05 11:59:03;;;;;;;;;;;;;;;;;;3624755;39;19923;-77
2021/08/05 12:01:29;;;;;;;;;;;;;;;;;;3633779;39;19923;-76
2021/08/05 12:03:55;;;;;;;;;;;;;;;;;;3633832;39;20023;-74
2021/08/05 12:06:22;;;;;;;;;;;;;;;;;;3624798;39;19946;-77
2021/08/05 12:08:49;;;;;;;;;;;;;;;;;;3613809;39;20302;-77
2021/08/05 12:11:15;;;;;;;;;;;;;;;;;;3627822;39;19928;-74
2021/08/05 12:13:42;;;;;;;;;;;;;;;;;;3624314;39;19968;-75
2021/08/05 12:16:07;;;;;;;;;;;;;;;;;;3618235;39;20189;-75
2021/08/05 12:18:34;;;;;;;;;;;;;;;;;;3625670;39;19927;-75
2021/08/05 12:21:00;;;;;;;;;;;;;;;;;;3622763;39;20161;-75
2021/08/05 12:23:32;;;;;;;;;;;;;;;;;;3622575;39;19923;-75
2021/08/05 12:26:04;;;;;;;;;;;;;;;;;;3622088;39;20319;-77
2021/08/05 12:28:30;;;;;;;;;;;;;;;;;;3602516;39;19963;-74
2021/08/05 12:30:56;;;;;;;;;;;;;;;;;;3618717;39;19935;-75
2021/08/05 12:33:23;;;;;;;;;;;;;;;;;;3606739;39;19943;-75
2021/08/05 12:35:48;;;;;;;;;;;;;;;;;;3611763;39;19927;-75
2021/08/05 12:38:14;;;;;;;;;;;;;;;;;;3621717;39;19923;-75
2021/08/05 12:40:40;;;;;;;;;;;;;;;;;;3612040;39;20219;-74
2021/08/05 12:43:06;;;;;;;;;;;;;;;;;;3614693;39;19939;-74
2021/08/05 12:45:32;;;;;;;;;;;;;;;;;;3615970;39;19931;-76
2021/08/05 12:47:58;;;;;;;;;;;;;;;;;;3613537;39;19927;-76
2021/08/05 12:50:24;;;;;;;;;;;;;;;;;;3623282;39;19939;-76
2021/08/05 12:52:50;;;;;;;;;;;;;;;;;;3612173;39;19928;-74
2021/08/05 12:55:16;;;;;;;;;;;;;;;;;;3625438;39;19927;-74
2021/08/05 12:57:43;;;;;;;;;;;;;;;;;;3626212;39;19932;-76
2021/08/05 13:00:09;;;;;;;;;;;;;;;;;;3616316;39;19938;-76
2021/08/05 13:02:34;;;;;;;;;;;;;;;;;;3623346;39;19928;-76
2021/08/05 13:05:00;;;;;;;;;;;;;;;;;;3623062;39;20196;-77
2021/08/05 13:07:26;;;;;;;;;;;;;;;;;;3623177;39;19929;-76
2021/08/05 13:09:52;;;;;;;;;;;;;;;;;;3623216;39;19927;-76
2021/08/05 13:12:18;;;;;;;;;;;;;;;;;;3621140;39;19928;-76
2021/08/05 13:14:44;;;;;;;;;;;;;;;;;;3616603;39;19928;-75
2021/08/05 13:17:10;;;;;;;;;;;;;;;;;;3604968;39;19934;-75
2021/08/05 13:19:36;;;;;;;;;;;;;;;;;;3621602;39;19927;-73
2021/08/05 13:22:02;;;;;;;;;;;;;;;;;;3621599;39;19981;-75
2021/08/05 13:24:28;;;;;;;;;;;;;;;;;;3612091;39;19930;-76
2021/08/05 13:26:54;;;;;;;;;;;;;;;;;;3621369;39;20295;-74
2021/08/05 13:29:20;;;;;;;;;;;;;;;;;;3619913;39;19927;-75
2021/08/05 13:31:45;;;;;;;;;;;;;;;;;;3621489;39;19934;-75
2021/08/05 13:34:11;;;;;;;;;;;;;;;;;;3623392;39;19923;-79
2021/08/05 13:36:37;;;;;;;;;;;;;;;;;;3625861;39;19947;-75
2021/08/05 13:39:03;;;;;;;;;;;;;;;;;;3623640;39;20257;-74
2021/08/05 13:41:29;;;;;;;;;;;;;;;;;;3610913;39;19950;-74
2021/08/05 13:43:55;;;;;;;;;;;;;;;;;;3601623;39;19924;-75
2021/08/05 13:46:21;;;;;;;;;;;;;;;;;;3603705;39;19946;-73
2021/08/05 13:48:47;;;;;;;;;;;;;;;;;;3611139;39;19988;-75
2021/08/05 13:51:13;;;;;;;;;;;;;;;;;;3603494;39;19928;-75
2021/08/05 13:53:39;;;;;;;;;;;;;;;;;;3590182;39;19964;-77
2021/08/05 13:56:05;;;;;;;;;;;;;;;;;;3591340;40;19932;-76
2021/08/05 13:58:32;;;;;;;;;;;;;;;;;;3593976;40;19928;-76
2021/08/05 14:00:58;;;;;;;;;;;;;;;;;;3601005;40;19924;-77
2021/08/05 14:03:24;;;;;;;;;;;;;;;;;;3600898;39;19924;-77
2021/08/05 14:05:50;;;;;;;;;;;;;;;;;;3600265;39;19928;-74
2021/08/05 14:08:16;;;;;;;;;;;;;;;;;;3599307;40;20355;-75
2021/08/05 14:10:42;;;;;;;;;;;;;;;;;;3599478;39;19939;-75
2021/08/05 14:13:08;;;;;;;;;;;;;;;;;;3590615;40;20026;-75
2021/08/05 14:15:34;;;;;;;;;;;;;;;;;;3590597;39;19928;-75
2021/08/05 14:18:00;;;;;;;;;;;;;;;;;;3599467;39;19939;-74
2021/08/05 14:20:26;;;;;;;;;;;;;;;;;;3606016;39;19960;-75
2021/08/05 14:22:52;;;;;;;;;;;;;;;;;;3599287;39;19928;-74
2021/08/05 14:25:19;;;;;;;;;;;;;;;;;;3616038;39;19942;-75
2021/08/05 14:27:45;;;;;;;;;;;;;;;;;;3620292;39;19928;-74
2021/08/05 14:30:10;;;;;;;;;;;;;;;;;;3611335;39;20197;-74
2021/08/05 14:32:36;;;;;;;;;;;;;;;;;;3620745;39;20228;-75
2021/08/05 14:35:02;;;;;;;;;;;;;;;;;;3625899;39;19931;-75
2021/08/05 14:37:28;;;;;;;;;;;;;;;;;;3623738;39;19935;-74
2021/08/05 14:39:54;;;;;;;;;;;;;;;;;;3627586;39;19942;-74
2021/08/05 14:42:20;;;;;;;;;;;;;;;;;;3620988;39;20027;-74
2021/08/05 14:44:46;;;;;;;;;;;;;;;;;;3611155;39;19931;-74
2021/08/05 14:47:12;;;;;;;;;;;;;;;;;;3605349;39;19955;-75
2021/08/05 14:49:38;;;;;;;;;;;;;;;;;;3619323;39;19931;-75
2021/08/05 14:52:04;;;;;;;;;;;;;;;;;;3609489;39;20200;-75
2021/08/05 14:54:30;;;;;;;;;;;;;;;;;;3617686;39;20289;-75
2021/08/05 14:56:57;;;;;;;;;;;;;;;;;;3604917;39;19931;-75
2021/08/05 14:59:22;;;;;;;;;;;;;;;;;;3620927;39;19927;-75
2021/08/05 15:01:48;;;;;;;;;;;;;;;;;;3628085;39;19939;-74
2021/08/05 15:04:14;;;;;;;;;;;;;;;;;;3617265;39;19931;-74
2021/08/05 15:06:42;;;;;;;;;;;;;;;;;;3614097;39;19927;-74
2021/08/05 15:09:09;;;;;;;;;;;;;;;;;;3626687;39;20237;-74
2021/08/05 15:11:35;;;;;;;;;;;;;;;;;;3606516;39;19934;-77
2021/08/05 15:14:01;;;;;;;;;;;;;;;;;;3604739;39;19959;-75
2021/08/05 15:16:27;;;;;;;;;;;;;;;;;;3612429;39;19930;-74
2021/08/05 15:18:53;;;;;;;;;;;;;;;;;;3622108;39;19950;-75
2021/08/05 15:21:19;;;;;;;;;;;;;;;;;;3612620;39;19935;-75
2021/08/05 15:23:45;;;;;;;;;;;;;;;;;;3622289;39;19934;-74
2021/08/05 15:26:12;;;;;;;;;;;;;;;;;;3622374;39;20283;-76
2021/08/05 15:28:38;;;;;;;;;;;;;;;;;;3621660;39;20011;-74
2021/08/05 15:31:04;;;;;;;;;;;;;;;;;;3619931;39;19943;-76
2021/08/05 15:33:30;;;;;;;;;;;;;;;;;;3612390;39;19940;-74
2021/08/05 15:35:56;;;;;;;;;;;;;;;;;;3614524;39;19924;-75
2021/08/05 15:38:22;;;;;;;;;;;;;;;;;;3628014;39;19967;-75
2021/08/05 15:40:48;;;;;;;;;;;;;;;;;;3612130;39;20196;-75
2021/08/05 15:43:14;;;;;;;;;;;;;;;;;;3611825;39;19928;-74
2021/08/05 15:45:40;;;;;;;;;;;;;;;;;;3615080;39;19935;-74
2021/08/05 15:48:06;;;;;;;;;;;;;;;;;;3618036;39;19934;-75
2021/08/05 15:50:32;;;;;;;;;;;;;;;;;;3611824;39;19931;-74